This is the latest recevied weather packets stored in our database for station/object BI2QYU-13. If no packets are shown the sender has not sent any weather packets the latest 10 day(s).
| Time | Temp. | Humidity | Pressure | Rain* | Wind** | Luminosity | Snow |
|---|---|---|---|---|---|---|---|
| 1778002227 | 28.33° C | 34% | 1025 hPa | 0 mm | - | - | - |
| 1778000424 | 28.89° C | 34% | 1025 hPa | 0 mm | - | - | - |
| 1777998621 | 29.44° C | 33% | 1025 hPa | 0 mm | - | - | - |
| 1777996818 | 28.89° C | 33% | 1025 hPa | 0 mm | - | - | - |
| 1777995015 | 28.89° C | 34% | 1025 hPa | 0 mm | - | - | - |
| 1777993211 | 28.89° C | 34% | 1025 hPa | 0 mm | - | - | - |
| 1777991409 | 28.89° C | 34% | 1025 hPa | 0 mm | - | - | - |
| 1777989606 | 28.89° C | 34% | 1025 hPa | 0 mm | - | - | - |
| 1777987803 | 28.89° C | 33% | 1025 hPa | 0 mm | - | - | - |
| 1777985999 | 28.89° C | 33% | 1025 hPa | 0 mm | - | - | - |
| 1777984197 | 28.89° C | 33% | 1025 hPa | 0 mm | - | - | - |
| 1777982394 | 28.89° C | 33% | 1025 hPa | 0 mm | - | - | - |
| 1777980592 | 28.89° C | 33% | 1025 hPa | 0 mm | - | - | - |
| 1777978789 | 26.67° C | 38% | 1025 hPa | 0 mm | - | - | - |
| 1777976986 | 29.44° C | 33% | 1025 hPa | 0 mm | - | - | - |
| 1777975184 | 29.44° C | 35% | 1025 hPa | 0 mm | - | - | - |
| 1777973381 | 28.89° C | 31% | 1025 hPa | 0 mm | - | - | - |
| 1777971578 | 29.44° C | 30% | 1025 hPa | 0 mm | - | - | - |
| 1777969776 | 28.89° C | 29% | 1025 hPa | 0 mm | - | - | - |
| 1777967973 | 28.89° C | 29% | 1025 hPa | 0 mm | - | - | - |
| 1777966170 | 29.44° C | 28% | 1025 hPa | 0 mm | - | - | - |
| 1777964368 | 28.89° C | 28% | 1025 hPa | 0 mm | - | - | - |
| 1777962565 | 28.89° C | 28% | 1025 hPa | 0 mm | - | - | - |
| 1777960762 | 28.89° C | 27% | 1025 hPa | 0 mm | - | - | - |
| 1777958960 | 28.89° C | 26% | 1025 hPa | 0 mm | - | - | - |
* Rain latest hour (hover to see other rain measurements)
** Current wind speed in m/s (hover to see current wind gust speed)